createdAt,value
2022-09-03T00:02:27.377Z,2.78
2022-09-03T00:05:16.050Z,3.38
2022-09-03T00:08:10.099Z,3.13
2022-09-03T00:10:53.362Z,3.20
2022-09-03T00:13:36.319Z,2.97
2022-09-03T00:16:10.451Z,2.80
2022-09-03T00:18:46.284Z,3.08
2022-09-03T00:21:39.353Z,3.00
2022-09-03T00:24:13.986Z,3.07
2022-09-03T00:26:52.090Z,3.60
2022-09-03T00:29:25.522Z,2.78
2022-09-03T00:32:02.368Z,3.03
2022-09-03T00:34:35.487Z,3.03
2022-09-03T00:37:03.786Z,3.20
2022-09-03T00:39:32.037Z,3.30
2022-09-03T00:42:28.439Z,4.25
2022-09-03T00:45:18.642Z,4.75
2022-09-03T00:48:07.987Z,4.57
2022-09-03T00:51:02.043Z,3.65
2022-09-03T00:53:52.179Z,4.20
2022-09-03T00:56:41.084Z,3.67
2022-09-03T00:59:31.441Z,3.70
2022-09-03T01:02:14.837Z,3.95
2022-09-03T01:04:54.931Z,3.72
2022-09-03T01:07:23.079Z,3.28
2022-09-03T01:10:04.533Z,3.45
2022-09-03T01:12:36.101Z,2.92
2022-09-03T01:15:21.472Z,2.65
2022-09-03T01:18:06.592Z,2.95
2022-09-03T01:20:58.060Z,3.53
2022-09-03T01:23:54.707Z,3.10
2022-09-03T01:26:35.088Z,2.75
2022-09-03T01:29:34.828Z,3.10
2022-09-03T01:32:30.679Z,3.22
2022-09-03T01:35:19.328Z,3.20
2022-09-03T01:38:05.948Z,3.22
2022-09-03T01:40:47.968Z,3.70
2022-09-03T01:43:36.706Z,2.95
2022-09-03T01:46:13.899Z,3.08
2022-09-03T01:48:56.223Z,2.92
2022-09-03T01:51:29.535Z,2.75
2022-09-03T01:56:38.088Z,2.60
2022-09-03T01:59:23.950Z,2.90
2022-09-03T02:01:59.892Z,2.80
2022-09-03T02:04:28.829Z,2.75
2022-09-03T02:07:00.581Z,2.90
2022-09-03T02:09:32.644Z,2.80
2022-09-03T02:12:11.485Z,2.63
2022-09-03T02:14:40.197Z,2.92
2022-09-03T02:17:09.162Z,2.78
2022-09-03T02:19:38.250Z,2.63
2022-09-03T02:22:09.332Z,2.80
2022-09-03T02:24:38.363Z,2.50
2022-09-03T02:27:06.685Z,2.45
2022-09-03T02:29:35.021Z,2.72
2022-09-03T02:32:03.528Z,2.55
2022-09-03T02:34:31.704Z,2.55
2022-09-03T02:37:00.056Z,2.75
2022-09-03T02:39:29.034Z,2.80
2022-09-03T02:41:58.911Z,3.33
2022-09-03T02:44:33.833Z,3.08
2022-09-03T02:47:06.276Z,3.13
2022-09-03T02:49:37.785Z,2.90
2022-09-03T02:52:12.322Z,3.67
2022-09-03T02:54:40.920Z,4.20
2022-09-03T02:57:11.615Z,4.68
2022-09-03T02:59:41.597Z,3.78
2022-09-03T03:02:10.044Z,3.80
2022-09-03T03:04:41.674Z,3.83
2022-09-03T03:07:09.931Z,3.97
2022-09-03T03:09:38.046Z,3.92
2022-09-03T03:12:07.250Z,3.55
2022-09-03T03:14:35.419Z,3.67
2022-09-03T03:17:03.939Z,3.20
2022-09-03T03:19:32.131Z,3.70
2022-09-03T03:22:00.480Z,4.07
2022-09-03T03:24:28.658Z,3.85
2022-09-03T03:26:58.315Z,3.97
2022-09-03T03:29:26.760Z,3.95
2022-09-03T03:31:58.163Z,4.10
2022-09-03T03:34:26.391Z,4.05
2022-09-03T03:36:56.870Z,3.63
2022-09-03T03:39:25.068Z,3.67
2022-09-03T03:41:53.745Z,3.72
2022-09-03T03:44:21.941Z,4.75
2022-09-03T03:46:50.136Z,3.83
2022-09-03T03:49:18.319Z,3.72
2022-09-03T03:51:46.516Z,3.30
2022-09-03T03:54:17.547Z,3.33
2022-09-03T03:56:55.252Z,2.90
2022-09-03T03:59:24.188Z,2.92
2022-09-03T04:01:55.027Z,2.75
2022-09-03T04:04:23.343Z,2.50
2022-09-03T04:06:53.875Z,2.83
2022-09-03T04:09:22.306Z,2.42
2022-09-03T04:11:53.669Z,2.67
2022-09-03T04:14:22.552Z,2.92
2022-09-03T04:16:54.872Z,3.28
2022-09-03T04:19:26.591Z,3.03
2022-09-03T04:21:54.778Z,2.83
2022-09-03T04:24:23.948Z,3.30
2022-09-03T04:26:54.081Z,3.70
2022-09-03T04:29:22.250Z,3.28
2022-09-03T04:32:09.023Z,3.28
2022-09-03T04:34:37.215Z,3.58
2022-09-03T04:37:05.500Z,3.10
2022-09-03T04:39:33.696Z,3.88
2022-09-03T04:42:04.540Z,3.78
2022-09-03T04:44:32.753Z,3.30
2022-09-03T04:47:00.950Z,3.20
2022-09-03T04:49:29.101Z,2.85
2022-09-03T04:51:57.588Z,3.17
2022-09-03T04:54:29.260Z,4.15
2022-09-03T04:56:58.310Z,4.05
2022-09-03T04:59:29.287Z,3.95
2022-09-03T05:01:57.866Z,3.78
2022-09-03T05:04:26.156Z,3.90
2022-09-03T05:06:54.580Z,4.20
2022-09-03T05:09:22.814Z,3.50
2022-09-03T05:11:51.027Z,3.95
2022-09-03T05:14:19.387Z,3.78
2022-09-03T05:16:52.992Z,3.67
2022-09-03T05:19:21.657Z,3.20
2022-09-03T05:21:52.671Z,3.22
2022-09-03T05:24:20.966Z,3.13
2022-09-03T05:26:49.225Z,3.33
2022-09-03T05:29:19.636Z,3.15
2022-09-03T05:31:47.917Z,2.33
2022-09-03T05:34:16.354Z,3.00
2022-09-03T05:36:49.108Z,2.75
2022-09-03T05:39:17.337Z,3.25
2022-09-03T05:41:45.816Z,3.03
2022-09-03T05:44:14.513Z,2.83
2022-09-03T05:46:42.732Z,3.80
2022-09-03T05:49:11.903Z,3.30
2022-09-03T05:51:40.315Z,4.63
2022-09-03T05:54:08.907Z,3.58
2022-09-03T05:56:40.237Z,3.05
2022-09-03T05:59:10.370Z,3.42
2022-09-03T06:01:51.587Z,2.97
2022-09-03T06:04:21.526Z,3.22
2022-09-03T06:06:52.405Z,3.15
2022-09-03T06:09:23.332Z,2.95
2022-09-03T06:11:53.912Z,2.90
2022-09-03T06:14:23.825Z,2.63
2022-09-03T06:16:53.073Z,2.97
2022-09-03T06:19:21.574Z,2.95
2022-09-03T06:21:49.918Z,2.97
2022-09-03T06:24:28.100Z,2.70
2022-09-03T06:26:57.763Z,4.03
2022-09-03T06:29:26.878Z,2.50
2022-09-03T06:31:55.981Z,2.90
2022-09-03T06:34:29.534Z,2.92
2022-09-03T06:36:58.397Z,2.93
2022-09-03T06:39:27.180Z,3.45
2022-09-03T06:41:55.542Z,3.20
2022-09-03T06:44:34.587Z,3.67
2022-09-03T06:47:02.815Z,2.70
2022-09-03T06:49:34.028Z,2.75
2022-09-03T06:52:02.412Z,3.50
2022-09-03T06:54:30.666Z,3.33
2022-09-03T06:56:58.858Z,3.60
2022-09-03T06:59:28.370Z,3.70
2022-09-03T07:01:58.248Z,4.50
2022-09-03T07:04:27.580Z,4.97
2022-09-03T07:06:57.495Z,4.80
2022-09-03T07:09:26.075Z,4.50
2022-09-03T07:11:55.924Z,5.10
2022-09-03T07:14:24.624Z,4.85
2022-09-03T07:16:52.896Z,5.03
2022-09-03T07:19:21.143Z,5.18
2022-09-03T07:21:50.798Z,4.82
2022-09-03T07:24:22.092Z,4.00
2022-09-03T07:26:50.994Z,3.47
2022-09-03T07:29:23.381Z,3.05
2022-09-03T07:31:52.859Z,3.13
2022-09-03T07:34:25.335Z,3.38
2022-09-03T07:36:54.301Z,3.57
2022-09-03T07:39:22.836Z,3.50
2022-09-03T07:41:51.244Z,2.85
2022-09-03T07:44:20.399Z,2.55
2022-09-03T07:46:51.471Z,2.65
2022-09-03T07:49:21.801Z,2.85
2022-09-03T07:51:52.364Z,2.67
2022-09-03T07:54:21.978Z,2.47
2022-09-03T07:56:50.194Z,2.40
2022-09-03T07:59:20.439Z,2.83
2022-09-03T08:01:51.167Z,2.55
2022-09-03T08:04:19.368Z,2.40
2022-09-03T08:06:48.306Z,2.50
2022-09-03T08:09:16.633Z,2.58
2022-09-03T08:11:44.844Z,2.58
2022-09-03T08:14:14.280Z,2.53
2022-09-03T08:16:49.894Z,2.67
2022-09-03T08:19:19.350Z,2.65
2022-09-03T08:21:48.427Z,2.85
2022-09-03T08:24:21.917Z,3.08
2022-09-03T08:26:52.429Z,3.72
2022-09-03T08:29:24.326Z,2.53
2022-09-03T08:31:52.598Z,2.92
2022-09-03T08:34:21.395Z,3.00
2022-09-03T08:36:50.388Z,2.70
2022-09-03T08:39:18.789Z,2.53
2022-09-03T08:41:53.263Z,1.85
2022-09-03T08:44:34.695Z,2.40
2022-09-03T08:47:39.676Z,1.80
2022-09-03T08:50:18.201Z,2.10
2022-09-03T08:52:50.638Z,2.17
2022-09-03T08:55:31.831Z,2.10
2022-09-03T08:58:20.960Z,1.83
2022-09-03T09:01:03.842Z,2.03
2022-09-03T09:03:39.610Z,1.80
2022-09-03T09:06:24.934Z,2.15
2022-09-03T09:08:57.695Z,1.80
2022-09-03T09:11:45.146Z,1.90
2022-09-03T09:14:27.099Z,1.77
2022-09-03T09:17:33.750Z,1.85
2022-09-03T09:20:20.243Z,1.80
2022-09-03T09:23:13.562Z,2.10
2022-09-03T09:25:50.131Z,2.25
2022-09-03T09:28:24.370Z,1.77
2022-09-03T09:30:56.794Z,1.90
2022-09-03T09:33:25.662Z,1.67
2022-09-03T09:35:53.910Z,2.03
2022-09-03T09:38:36.380Z,2.03
2022-09-03T09:41:12.190Z,1.65
2022-09-03T09:43:40.724Z,1.90
2022-09-03T09:46:21.540Z,1.65
2022-09-03T09:48:54.808Z,2.03
2022-09-03T09:51:31.822Z,1.80
2022-09-03T09:54:11.680Z,1.90
2022-09-03T09:56:42.307Z,1.80
2022-09-03T09:59:15.413Z,1.90
2022-09-03T10:04:25.700Z,1.80
2022-09-03T10:07:19.678Z,2.40
2022-09-03T10:10:29.208Z,2.05
2022-09-03T10:13:09.470Z,2.33
2022-09-03T10:15:51.160Z,1.70
2022-09-03T10:18:48.095Z,1.95
2022-09-03T10:21:36.717Z,1.77
2022-09-03T10:24:41.049Z,2.05
2022-09-03T10:27:12.348Z,2.10
2022-09-03T10:29:41.826Z,2.05
2022-09-03T10:32:24.124Z,1.90
2022-09-03T10:35:28.350Z,2.08
2022-09-03T10:38:10.448Z,2.00
2022-09-03T10:40:56.617Z,2.75
2022-09-03T10:43:44.372Z,1.73
2022-09-03T10:46:23.414Z,2.30
2022-09-03T10:49:18.012Z,2.13
2022-09-03T10:52:01.315Z,1.90
2022-09-03T10:57:22.765Z,1.80
2022-09-03T10:59:54.087Z,1.88
2022-09-03T11:02:44.007Z,2.13
2022-09-03T11:05:43.837Z,2.35
2022-09-03T11:08:23.666Z,1.92
2022-09-03T11:10:57.332Z,2.15
2022-09-03T11:13:38.739Z,1.83
2022-09-03T11:16:20.119Z,1.70
2022-09-03T11:18:51.279Z,2.30
2022-09-03T11:21:24.830Z,2.00
2022-09-03T11:24:17.389Z,2.08
2022-09-03T11:26:52.677Z,1.83
2022-09-03T11:29:38.118Z,2.10
2022-09-03T11:32:19.001Z,1.90
2022-09-03T11:34:50.215Z,1.92
2022-09-03T11:37:22.728Z,2.10
2022-09-03T11:40:12.288Z,2.13
2022-09-03T11:42:42.375Z,2.17
2022-09-03T11:45:14.316Z,2.15
2022-09-03T11:47:44.606Z,1.90
2022-09-03T11:50:28.288Z,2.20
2022-09-03T11:53:10.297Z,2.22
2022-09-03T11:55:57.078Z,1.85
2022-09-03T11:58:34.816Z,1.98
2022-09-03T12:01:16.417Z,2.10
2022-09-03T12:03:51.574Z,2.40
2022-09-03T12:06:36.656Z,2.25
2022-09-03T12:09:35.800Z,1.77
2022-09-03T12:12:28.073Z,2.22
2022-09-03T12:15:30.133Z,2.13
2022-09-03T12:18:22.566Z,1.60
2022-09-03T12:20:57.475Z,1.58
2022-09-03T12:23:33.570Z,1.75
2022-09-03T12:26:06.159Z,1.90
2022-09-03T12:28:44.313Z,1.88
2022-09-03T12:31:25.596Z,1.95
2022-09-03T12:33:55.557Z,2.45
2022-09-03T12:36:24.179Z,1.80
2022-09-03T12:39:11.975Z,2.05
2022-09-03T12:42:02.253Z,2.42
2022-09-03T12:44:41.144Z,2.05
2022-09-03T12:50:14.358Z,1.93
2022-09-03T12:53:10.937Z,2.55
2022-09-03T12:55:48.057Z,2.42
2022-09-03T12:58:19.018Z,2.00
2022-09-03T13:01:21.263Z,2.33
2022-09-03T13:04:19.109Z,2.15
2022-09-03T13:07:05.792Z,2.33
2022-09-03T13:09:38.024Z,2.40
2022-09-03T13:12:07.341Z,2.27
2022-09-03T13:14:47.268Z,1.95
2022-09-03T13:17:38.682Z,2.13
2022-09-03T13:20:40.465Z,2.30
2022-09-03T13:23:34.470Z,2.65
2022-09-03T13:26:08.627Z,2.50
2022-09-03T13:28:58.375Z,2.88
2022-09-03T13:31:50.663Z,2.40
2022-09-03T13:34:40.158Z,2.50
2022-09-03T13:37:17.470Z,2.70
2022-09-03T13:40:00.349Z,2.47
2022-09-03T13:42:42.656Z,2.55
2022-09-03T13:45:32.661Z,2.20
2022-09-03T13:48:28.548Z,2.70
2022-09-03T13:51:04.361Z,2.67
2022-09-03T13:54:30.986Z,2.10
2022-09-03T13:57:34.423Z,2.58
2022-09-03T14:00:10.140Z,2.40
2022-09-03T14:03:07.668Z,2.33
2022-09-03T14:05:43.935Z,2.50
2022-09-03T14:08:55.391Z,2.53
2022-09-03T14:11:58.812Z,2.50
2022-09-03T14:14:52.692Z,2.33
2022-09-03T14:17:46.527Z,2.30
2022-09-03T14:20:41.378Z,2.50
2022-09-03T14:23:44.828Z,2.20
2022-09-03T14:26:38.491Z,2.55
2022-09-03T14:29:14.186Z,2.22
2022-09-03T14:32:13.255Z,2.30
2022-09-03T14:34:50.635Z,2.55
2022-09-03T14:37:37.651Z,2.38
2022-09-03T14:40:19.089Z,2.45
2022-09-03T14:42:47.766Z,2.70
2022-09-03T14:45:52.655Z,2.80
2022-09-03T14:48:23.616Z,2.67
2022-09-03T14:51:11.079Z,2.40
2022-09-03T14:54:16.054Z,2.88
2022-09-03T14:57:01.041Z,3.03
2022-09-03T15:00:07.075Z,2.45
2022-09-03T15:02:35.301Z,2.40
2022-09-03T15:05:41.318Z,2.65
2022-09-03T15:08:23.586Z,2.33
2022-09-03T15:10:59.178Z,2.72
2022-09-03T15:14:18.762Z,4.00
2022-09-03T15:17:12.854Z,3.22
2022-09-03T15:20:05.220Z,3.55
2022-09-03T15:23:02.856Z,2.75
2022-09-03T15:25:54.246Z,3.10
2022-09-03T15:28:59.788Z,3.15
2022-09-03T15:31:28.029Z,3.00
2022-09-03T15:34:33.884Z,2.53
2022-09-03T15:37:09.904Z,2.92
2022-09-03T15:39:42.369Z,3.40
2022-09-03T15:42:27.352Z,3.33
2022-09-03T15:45:42.462Z,3.38
2022-09-03T15:48:43.338Z,3.22
2022-09-03T15:51:30.164Z,3.20
2022-09-03T15:54:09.033Z,3.15
2022-09-03T15:57:11.997Z,2.80
2022-09-03T16:00:09.223Z,3.03
2022-09-03T16:02:49.299Z,3.30
2022-09-03T16:05:24.523Z,3.15
2022-09-03T16:08:10.959Z,2.88
2022-09-03T16:10:57.123Z,2.88
2022-09-03T16:13:49.614Z,2.80
2022-09-03T16:16:33.081Z,2.47
2022-09-03T16:19:39.117Z,3.00
2022-09-03T16:22:37.568Z,2.58
2022-09-03T16:25:13.510Z,2.80
2022-09-03T16:28:10.201Z,2.67
2022-09-03T16:30:40.983Z,2.60
2022-09-03T16:33:24.739Z,2.83
2022-09-03T16:36:11.341Z,2.90
2022-09-03T16:39:06.816Z,2.50
2022-09-03T16:41:50.013Z,2.63
2022-09-03T16:44:34.258Z,2.88
2022-09-03T16:47:19.110Z,2.60
2022-09-03T16:50:06.414Z,2.60
2022-09-03T16:53:02.256Z,2.78
2022-09-03T16:55:39.510Z,2.50
2022-09-03T16:58:34.739Z,3.05
2022-09-03T17:01:13.370Z,3.15
2022-09-03T17:03:44.695Z,2.35
2022-09-03T17:06:26.459Z,3.40
2022-09-03T17:09:16.108Z,3.25
2022-09-03T17:12:35.858Z,2.70
2022-09-03T17:15:33.443Z,2.38
2022-09-03T17:18:21.793Z,2.65
2022-09-03T17:20:59.028Z,2.85
2022-09-03T17:23:47.440Z,3.35
2022-09-03T17:26:55.503Z,3.13
2022-09-03T17:29:36.597Z,2.78
2022-09-03T17:32:13.439Z,2.10
2022-09-03T17:34:44.321Z,3.45
2022-09-03T17:37:39.771Z,2.92
2022-09-03T17:40:44.039Z,2.60
2022-09-03T17:44:03.494Z,2.67
2022-09-03T17:46:42.608Z,3.13
2022-09-03T17:49:29.603Z,3.08
2022-09-03T17:52:13.231Z,2.88
2022-09-03T17:54:45.671Z,2.92
2022-09-03T17:57:38.098Z,2.47
2022-09-03T18:00:21.207Z,3.17
2022-09-03T18:03:13.759Z,2.65
2022-09-03T18:05:54.807Z,2.60
2022-09-03T18:08:48.412Z,2.80
2022-09-03T18:11:30.359Z,2.92
2022-09-03T18:14:25.001Z,2.65
2022-09-03T18:16:59.320Z,3.53
2022-09-03T18:19:58.108Z,2.42
2022-09-03T18:23:10.896Z,2.83
2022-09-03T18:26:02.828Z,3.08
2022-09-03T18:28:57.518Z,3.15
2022-09-03T18:31:46.633Z,3.55
2022-09-03T18:34:33.580Z,3.60
2022-09-03T18:37:20.414Z,3.10
2022-09-03T18:40:07.040Z,4.43
2022-09-03T18:43:21.210Z,2.95
2022-09-03T18:49:46.500Z,3.30
2022-09-03T18:52:54.968Z,3.90
2022-09-03T18:56:23.390Z,3.88
2022-09-03T18:59:28.823Z,3.72
2022-09-03T19:02:15.473Z,4.10
2022-09-03T19:05:40.109Z,3.85
2022-09-03T19:08:36.355Z,3.72
2022-09-03T19:11:54.932Z,4.30
2022-09-03T19:14:49.671Z,3.70
2022-09-03T19:17:45.226Z,3.75
2022-09-03T19:20:49.302Z,4.45
2022-09-03T19:26:52.574Z,3.60
2022-09-03T19:30:06.349Z,3.65
2022-09-03T19:33:13.941Z,4.00
2022-09-03T19:36:28.510Z,4.30
2022-09-03T19:39:29.371Z,3.80
2022-09-03T19:42:34.502Z,3.60
2022-09-03T19:45:53.553Z,4.15
2022-09-03T19:49:10.567Z,3.63
2022-09-03T19:52:09.741Z,3.55
2022-09-03T19:54:57.465Z,3.75
2022-09-03T19:57:47.155Z,3.72
2022-09-03T20:00:34.561Z,3.42
2022-09-03T20:03:23.731Z,3.47
2022-09-03T20:06:11.973Z,3.50
2022-09-03T20:09:02.652Z,3.90
2022-09-03T20:11:31.564Z,5.53
2022-09-03T20:14:15.900Z,3.95
2022-09-03T20:17:02.287Z,3.83
2022-09-03T20:19:41.709Z,3.30
2022-09-03T20:22:09.964Z,3.83
2022-09-03T20:24:59.586Z,4.10
2022-09-03T20:27:48.106Z,3.78
2022-09-03T20:30:20.112Z,3.47
2022-09-03T20:33:28.332Z,3.35
2022-09-03T20:36:15.141Z,3.85
2022-09-03T20:38:59.676Z,3.65
2022-09-03T20:41:41.004Z,3.35
2022-09-03T20:44:48.864Z,3.92
2022-09-03T20:47:45.090Z,3.75
2022-09-03T20:50:28.356Z,3.55
2022-09-03T20:53:02.094Z,3.53
2022-09-03T20:55:44.613Z,3.40
2022-09-03T20:58:27.816Z,4.65
2022-09-03T21:01:07.114Z,3.80
2022-09-03T21:04:02.353Z,3.65
2022-09-03T21:06:53.896Z,3.97
2022-09-03T21:09:42.700Z,4.03
2022-09-03T21:12:32.444Z,3.67
2022-09-03T21:15:39.700Z,3.45
2022-09-03T21:18:24.416Z,3.35
2022-09-03T21:21:09.649Z,3.70
2022-09-03T21:23:44.980Z,4.32
2022-09-03T21:26:21.465Z,3.83
2022-09-03T21:29:13.124Z,3.67
2022-09-03T21:31:48.450Z,3.92
2022-09-03T21:34:37.089Z,4.07
2022-09-03T21:37:06.519Z,4.05
2022-09-03T21:39:56.055Z,4.00
2022-09-03T21:42:42.162Z,3.95
2022-09-03T21:45:25.388Z,3.78
2022-09-03T21:48:10.051Z,3.58
2022-09-03T21:51:00.181Z,4.00
2022-09-03T21:54:09.265Z,3.85
2022-09-03T21:56:49.424Z,3.65
2022-09-03T21:59:26.687Z,3.38
2022-09-03T22:02:03.041Z,3.47
2022-09-03T22:04:31.738Z,3.97
2022-09-03T22:07:26.167Z,3.25
2022-09-03T22:10:20.227Z,3.65
2022-09-03T22:13:09.365Z,3.42
2022-09-03T22:15:38.966Z,4.00
2022-09-03T22:18:29.417Z,3.50
2022-09-03T22:21:28.717Z,3.58
2022-09-03T22:24:24.615Z,3.47
2022-09-03T22:27:03.648Z,3.72
2022-09-03T22:29:57.367Z,3.08
2022-09-03T22:32:55.956Z,3.38
2022-09-03T22:35:26.996Z,4.10
2022-09-03T22:38:20.899Z,3.92
2022-09-03T22:44:02.311Z,3.75
2022-09-03T22:46:54.134Z,3.50
2022-09-03T22:49:41.586Z,3.83
2022-09-03T22:52:34.798Z,3.60
2022-09-03T22:55:14.690Z,3.58
2022-09-03T22:57:54.818Z,3.58
2022-09-03T23:00:23.456Z,3.33
2022-09-03T23:03:08.711Z,3.30
2022-09-03T23:05:41.138Z,4.10
2022-09-03T23:08:14.135Z,3.83
2022-09-03T23:11:03.975Z,3.30
2022-09-03T23:13:42.086Z,3.45
2022-09-03T23:16:13.595Z,3.33
2022-09-03T23:18:45.715Z,3.78
2022-09-03T23:21:47.473Z,3.28
2022-09-03T23:24:31.089Z,3.60
2022-09-03T23:29:45.988Z,3.50
2022-09-03T23:32:15.075Z,3.90
2022-09-03T23:34:43.307Z,3.60
2022-09-03T23:37:32.294Z,3.53
2022-09-03T23:40:37.462Z,3.78
2022-09-03T23:43:13.732Z,3.20
2022-09-03T23:46:05.209Z,3.10
2022-09-03T23:48:37.689Z,3.50
2022-09-03T23:51:24.296Z,4.15
2022-09-03T23:53:58.024Z,4.60
2022-09-03T23:56:45.618Z,3.78
2022-09-03T23:59:43.895Z,4.32
